sensor_id;sensor_type;location;lat;lon;timestamp;temperature;humidity
52125;DHT22;38119;52.710;6.398;2023-02-28T00:01:01;4.00;99.90
52125;DHT22;38119;52.710;6.398;2023-02-28T00:03:26;4.00;99.90
52125;DHT22;38119;52.710;6.398;2023-02-28T00:05:52;4.00;99.90
52125;DHT22;38119;52.710;6.398;2023-02-28T00:08:18;4.00;99.90
52125;DHT22;38119;52.710;6.398;2023-02-28T00:10:43;4.00;99.90
52125;DHT22;38119;52.710;6.398;2023-02-28T00:13:09;4.00;99.90
52125;DHT22;38119;52.710;6.398;2023-02-28T00:15:35;4.10;99.90
52125;DHT22;38119;52.710;6.398;2023-02-28T00:18:01;4.10;99.90
52125;DHT22;38119;52.710;6.398;2023-02-28T00:20:26;4.00;99.90
52125;DHT22;38119;52.710;6.398;2023-02-28T00:22:53;4.10;99.90
52125;DHT22;38119;52.710;6.398;2023-02-28T00:25:21;4.10;99.90
52125;DHT22;38119;52.710;6.398;2023-02-28T00:27:47;4.10;99.90
52125;DHT22;38119;52.710;6.398;2023-02-28T00:30:16;4.10;99.90
52125;DHT22;38119;52.710;6.398;2023-02-28T00:32:43;4.10;99.90
52125;DHT22;38119;52.710;6.398;2023-02-28T00:35:10;4.10;99.90
52125;DHT22;38119;52.710;6.398;2023-02-28T00:37:35;4.10;99.90
52125;DHT22;38119;52.710;6.398;2023-02-28T00:40:01;4.10;99.90
52125;DHT22;38119;52.710;6.398;2023-02-28T00:42:30;4.10;99.90
52125;DHT22;38119;52.710;6.398;2023-02-28T00:44:56;4.10;99.90
52125;DHT22;38119;52.710;6.398;2023-02-28T00:47:21;4.10;99.90
52125;DHT22;38119;52.710;6.398;2023-02-28T00:49:47;4.20;99.90
52125;DHT22;38119;52.710;6.398;2023-02-28T00:52:13;4.20;99.90
52125;DHT22;38119;52.710;6.398;2023-02-28T00:54:38;4.40;99.90
52125;DHT22;38119;52.710;6.398;2023-02-28T00:57:04;4.20;99.90
52125;DHT22;38119;52.710;6.398;2023-02-28T00:59:29;4.20;99.90
52125;DHT22;38119;52.710;6.398;2023-02-28T01:01:55;4.20;99.90
52125;DHT22;38119;52.710;6.398;2023-02-28T01:04:21;4.20;99.90
52125;DHT22;38119;52.710;6.398;2023-02-28T01:06:46;4.20;99.90
52125;DHT22;38119;52.710;6.398;2023-02-28T01:09:12;4.20;99.90
52125;DHT22;38119;52.710;6.398;2023-02-28T01:11:39;4.20;99.90
52125;DHT22;38119;52.710;6.398;2023-02-28T01:14:08;4.20;99.90
52125;DHT22;38119;52.710;6.398;2023-02-28T01:16:34;4.20;99.90
52125;DHT22;38119;52.710;6.398;2023-02-28T01:18:59;4.20;99.90
52125;DHT22;38119;52.710;6.398;2023-02-28T01:21:25;4.20;99.90
52125;DHT22;38119;52.710;6.398;2023-02-28T01:23:51;4.20;99.90
52125;DHT22;38119;52.710;6.398;2023-02-28T01:26:19;4.20;99.90
52125;DHT22;38119;52.710;6.398;2023-02-28T01:28:45;4.20;99.90
52125;DHT22;38119;52.710;6.398;2023-02-28T01:31:11;4.20;99.90
52125;DHT22;38119;52.710;6.398;2023-02-28T01:33:37;4.20;99.90
52125;DHT22;38119;52.710;6.398;2023-02-28T01:36:06;4.20;99.90
52125;DHT22;38119;52.710;6.398;2023-02-28T01:38:33;4.20;99.90
52125;DHT22;38119;52.710;6.398;2023-02-28T01:40:59;4.20;99.90
52125;DHT22;38119;52.710;6.398;2023-02-28T01:46:15;4.20;99.90
52125;DHT22;38119;52.710;6.398;2023-02-28T01:48:51;4.20;99.90
52125;DHT22;38119;52.710;6.398;2023-02-28T01:51:22;4.20;99.90
52125;DHT22;38119;52.710;6.398;2023-02-28T01:53:59;4.20;99.90
52125;DHT22;38119;52.710;6.398;2023-02-28T01:56:32;4.20;99.90
52125;DHT22;38119;52.710;6.398;2023-02-28T01:58:58;4.10;99.90
52125;DHT22;38119;52.710;6.398;2023-02-28T02:01:26;4.20;99.90
52125;DHT22;38119;52.710;6.398;2023-02-28T02:03:55;4.20;99.90
52125;DHT22;38119;52.710;6.398;2023-02-28T02:06:29;4.20;99.90
52125;DHT22;38119;52.710;6.398;2023-02-28T02:08:55;4.20;99.90
52125;DHT22;38119;52.710;6.398;2023-02-28T02:11:22;4.20;99.90
52125;DHT22;38119;52.710;6.398;2023-02-28T02:17:09;4.20;99.90
52125;DHT22;38119;52.710;6.398;2023-02-28T02:20:27;4.20;99.90
52125;DHT22;38119;52.710;6.398;2023-02-28T02:23:01;4.20;99.90
52125;DHT22;38119;52.710;6.398;2023-02-28T02:35:56;4.10;99.90
52125;DHT22;38119;52.710;6.398;2023-02-28T02:38:46;4.10;99.90
52125;DHT22;38119;52.710;6.398;2023-02-28T02:43:55;4.10;99.90
52125;DHT22;38119;52.710;6.398;2023-02-28T02:46:28;4.10;99.90
52125;DHT22;38119;52.710;6.398;2023-02-28T02:48:57;4.10;99.90
52125;DHT22;38119;52.710;6.398;2023-02-28T02:51:26;4.10;99.90
52125;DHT22;38119;52.710;6.398;2023-02-28T02:53:57;4.10;99.90
52125;DHT22;38119;52.710;6.398;2023-02-28T02:56:27;4.10;99.90
52125;DHT22;38119;52.710;6.398;2023-02-28T02:58:55;4.10;99.90
52125;DHT22;38119;52.710;6.398;2023-02-28T03:01:26;4.10;99.90
52125;DHT22;38119;52.710;6.398;2023-02-28T03:03:58;4.10;99.90
52125;DHT22;38119;52.710;6.398;2023-02-28T03:06:25;4.10;99.90
52125;DHT22;38119;52.710;6.398;2023-02-28T03:08:51;4.10;99.90
52125;DHT22;38119;52.710;6.398;2023-02-28T03:11:17;4.10;99.90
52125;DHT22;38119;52.710;6.398;2023-02-28T03:16:33;4.00;99.90
52125;DHT22;38119;52.710;6.398;2023-02-28T03:21:38;4.00;99.90
52125;DHT22;38119;52.710;6.398;2023-02-28T03:24:08;4.00;99.90
52125;DHT22;38119;52.710;6.398;2023-02-28T03:26:39;3.90;99.90
52125;DHT22;38119;52.710;6.398;2023-02-28T03:29:24;3.90;99.90
52125;DHT22;38119;52.710;6.398;2023-02-28T03:31:59;3.90;99.90
52125;DHT22;38119;52.710;6.398;2023-02-28T03:34:39;3.90;99.90
52125;DHT22;38119;52.710;6.398;2023-02-28T03:37:12;3.90;99.90
52125;DHT22;38119;52.710;6.398;2023-02-28T03:39:47;3.90;99.90
52125;DHT22;38119;52.710;6.398;2023-02-28T03:42:18;3.90;99.90
52125;DHT22;38119;52.710;6.398;2023-02-28T03:44:55;3.90;99.90
52125;DHT22;38119;52.710;6.398;2023-02-28T03:47:39;3.90;99.90
52125;DHT22;38119;52.710;6.398;2023-02-28T03:52:45;3.80;99.90
52125;DHT22;38119;52.710;6.398;2023-02-28T03:55:14;3.80;99.90
52125;DHT22;38119;52.710;6.398;2023-02-28T04:02:42;3.80;99.90
52125;DHT22;38119;52.710;6.398;2023-02-28T04:05:08;3.70;99.90
52125;DHT22;38119;52.710;6.398;2023-02-28T04:07:34;3.70;99.90
52125;DHT22;38119;52.710;6.398;2023-02-28T04:09:59;3.70;99.90
52125;DHT22;38119;52.710;6.398;2023-02-28T04:12:25;3.70;99.90
52125;DHT22;38119;52.710;6.398;2023-02-28T04:14:51;3.70;99.90
52125;DHT22;38119;52.710;6.398;2023-02-28T04:17:17;3.70;99.90
52125;DHT22;38119;52.710;6.398;2023-02-28T04:19:43;3.80;99.90
52125;DHT22;38119;52.710;6.398;2023-02-28T04:22:09;3.80;99.90
52125;DHT22;38119;52.710;6.398;2023-02-28T04:24:35;3.80;99.90
52125;DHT22;38119;52.710;6.398;2023-02-28T04:27:00;3.80;99.90
52125;DHT22;38119;52.710;6.398;2023-02-28T04:29:28;3.80;99.90
52125;DHT22;38119;52.710;6.398;2023-02-28T04:31:55;3.70;99.90
52125;DHT22;38119;52.710;6.398;2023-02-28T04:34:29;3.70;99.90
52125;DHT22;38119;52.710;6.398;2023-02-28T04:36:56;3.70;99.90
52125;DHT22;38119;52.710;6.398;2023-02-28T04:39:23;3.70;99.90
52125;DHT22;38119;52.710;6.398;2023-02-28T04:41:49;3.70;99.90
52125;DHT22;38119;52.710;6.398;2023-02-28T04:44:15;3.70;99.90
52125;DHT22;38119;52.710;6.398;2023-02-28T04:46:41;3.70;99.90
52125;DHT22;38119;52.710;6.398;2023-02-28T04:49:11;3.80;99.90
52125;DHT22;38119;52.710;6.398;2023-02-28T04:51:38;3.70;99.90
52125;DHT22;38119;52.710;6.398;2023-02-28T04:54:04;3.70;99.90
52125;DHT22;38119;52.710;6.398;2023-02-28T04:56:30;3.70;99.90
52125;DHT22;38119;52.710;6.398;2023-02-28T04:58:56;3.70;99.90
52125;DHT22;38119;52.710;6.398;2023-02-28T05:01:26;3.70;99.90
52125;DHT22;38119;52.710;6.398;2023-02-28T05:03:54;3.70;99.90
52125;DHT22;38119;52.710;6.398;2023-02-28T05:06:20;3.70;99.90
52125;DHT22;38119;52.710;6.398;2023-02-28T05:08:47;3.70;99.90
52125;DHT22;38119;52.710;6.398;2023-02-28T05:11:18;3.70;99.90
52125;DHT22;38119;52.710;6.398;2023-02-28T05:13:45;3.70;99.90
52125;DHT22;38119;52.710;6.398;2023-02-28T05:16:10;3.70;99.90
52125;DHT22;38119;52.710;6.398;2023-02-28T05:18:37;3.70;99.90
52125;DHT22;38119;52.710;6.398;2023-02-28T05:21:03;3.70;99.90
52125;DHT22;38119;52.710;6.398;2023-02-28T05:23:28;3.60;99.90
52125;DHT22;38119;52.710;6.398;2023-02-28T05:25:54;3.70;99.90
52125;DHT22;38119;52.710;6.398;2023-02-28T05:28:20;3.60;99.90
52125;DHT22;38119;52.710;6.398;2023-02-28T05:30:46;3.60;99.90
52125;DHT22;38119;52.710;6.398;2023-02-28T05:33:12;3.60;99.90
52125;DHT22;38119;52.710;6.398;2023-02-28T05:35:39;3.60;99.90
52125;DHT22;38119;52.710;6.398;2023-02-28T05:38:05;3.60;99.90
52125;DHT22;38119;52.710;6.398;2023-02-28T05:40:31;3.60;99.90
52125;DHT22;38119;52.710;6.398;2023-02-28T05:42:56;3.60;99.90
52125;DHT22;38119;52.710;6.398;2023-02-28T05:45:22;3.60;99.90
52125;DHT22;38119;52.710;6.398;2023-02-28T05:47:48;3.50;99.90
52125;DHT22;38119;52.710;6.398;2023-02-28T05:50:13;3.50;99.90
52125;DHT22;38119;52.710;6.398;2023-02-28T05:52:39;3.60;99.90
52125;DHT22;38119;52.710;6.398;2023-02-28T05:55:05;3.60;99.90
52125;DHT22;38119;52.710;6.398;2023-02-28T05:57:31;3.60;99.90
52125;DHT22;38119;52.710;6.398;2023-02-28T05:59:56;3.60;99.90
52125;DHT22;38119;52.710;6.398;2023-02-28T06:02:22;3.50;99.90
52125;DHT22;38119;52.710;6.398;2023-02-28T06:04:48;3.60;99.90
52125;DHT22;38119;52.710;6.398;2023-02-28T06:07:13;3.50;99.90
52125;DHT22;38119;52.710;6.398;2023-02-28T06:09:40;3.50;99.90
52125;DHT22;38119;52.710;6.398;2023-02-28T06:12:06;3.50;99.90
52125;DHT22;38119;52.710;6.398;2023-02-28T06:14:34;3.50;99.90
52125;DHT22;38119;52.710;6.398;2023-02-28T06:17:01;3.50;99.90
52125;DHT22;38119;52.710;6.398;2023-02-28T06:19:27;3.50;99.90
52125;DHT22;38119;52.710;6.398;2023-02-28T06:21:53;3.40;99.90
52125;DHT22;38119;52.710;6.398;2023-02-28T06:24:20;3.50;99.90
52125;DHT22;38119;52.710;6.398;2023-02-28T06:26:46;3.40;99.90
52125;DHT22;38119;52.710;6.398;2023-02-28T06:29:12;3.40;99.90
52125;DHT22;38119;52.710;6.398;2023-02-28T06:31:47;3.40;99.90
52125;DHT22;38119;52.710;6.398;2023-02-28T06:34:13;3.40;99.90
52125;DHT22;38119;52.710;6.398;2023-02-28T06:36:40;3.40;99.90
52125;DHT22;38119;52.710;6.398;2023-02-28T06:39:07;3.40;99.90
52125;DHT22;38119;52.710;6.398;2023-02-28T06:41:33;3.40;99.90
52125;DHT22;38119;52.710;6.398;2023-02-28T06:44:12;3.40;99.90
52125;DHT22;38119;52.710;6.398;2023-02-28T06:46:40;3.40;99.90
52125;DHT22;38119;52.710;6.398;2023-02-28T06:49:06;3.40;99.90
52125;DHT22;38119;52.710;6.398;2023-02-28T06:51:35;3.40;99.90
52125;DHT22;38119;52.710;6.398;2023-02-28T06:54:01;3.40;99.90
52125;DHT22;38119;52.710;6.398;2023-02-28T06:56:27;3.40;99.90
52125;DHT22;38119;52.710;6.398;2023-02-28T06:58:52;3.40;99.90
52125;DHT22;38119;52.710;6.398;2023-02-28T07:01:19;3.40;99.90
52125;DHT22;38119;52.710;6.398;2023-02-28T07:03:45;3.40;99.90
52125;DHT22;38119;52.710;6.398;2023-02-28T07:06:11;3.40;99.90
52125;DHT22;38119;52.710;6.398;2023-02-28T07:08:37;3.40;99.90
52125;DHT22;38119;52.710;6.398;2023-02-28T07:11:03;3.40;99.90
52125;DHT22;38119;52.710;6.398;2023-02-28T07:13:29;3.50;99.90
52125;DHT22;38119;52.710;6.398;2023-02-28T07:16:04;3.50;99.90
52125;DHT22;38119;52.710;6.398;2023-02-28T07:18:30;3.40;99.90
52125;DHT22;38119;52.710;6.398;2023-02-28T07:20:55;3.50;99.90
52125;DHT22;38119;52.710;6.398;2023-02-28T07:23:22;3.50;99.90
52125;DHT22;38119;52.710;6.398;2023-02-28T07:25:49;3.50;99.90
52125;DHT22;38119;52.710;6.398;2023-02-28T07:28:14;3.50;99.90
52125;DHT22;38119;52.710;6.398;2023-02-28T07:30:41;3.50;99.90
52125;DHT22;38119;52.710;6.398;2023-02-28T07:33:06;3.60;99.90
52125;DHT22;38119;52.710;6.398;2023-02-28T07:35:32;3.60;99.90
52125;DHT22;38119;52.710;6.398;2023-02-28T07:37:58;3.60;99.90
52125;DHT22;38119;52.710;6.398;2023-02-28T07:40:25;3.60;99.90
52125;DHT22;38119;52.710;6.398;2023-02-28T07:42:50;3.70;99.90
52125;DHT22;38119;52.710;6.398;2023-02-28T07:45:16;3.70;99.90
52125;DHT22;38119;52.710;6.398;2023-02-28T07:47:43;3.70;99.90
52125;DHT22;38119;52.710;6.398;2023-02-28T07:50:11;3.80;99.90
52125;DHT22;38119;52.710;6.398;2023-02-28T07:52:38;3.80;99.90
52125;DHT22;38119;52.710;6.398;2023-02-28T07:55:05;3.80;99.90
52125;DHT22;38119;52.710;6.398;2023-02-28T07:57:31;3.80;99.90
52125;DHT22;38119;52.710;6.398;2023-02-28T07:59:57;3.80;99.90
52125;DHT22;38119;52.710;6.398;2023-02-28T08:02:23;3.90;99.90
52125;DHT22;38119;52.710;6.398;2023-02-28T08:04:48;3.90;99.90
52125;DHT22;38119;52.710;6.398;2023-02-28T08:07:15;4.00;99.90
52125;DHT22;38119;52.710;6.398;2023-02-28T08:09:42;4.00;99.90
52125;DHT22;38119;52.710;6.398;2023-02-28T08:12:09;4.10;99.90
52125;DHT22;38119;52.710;6.398;2023-02-28T08:14:36;4.10;99.90
52125;DHT22;38119;52.710;6.398;2023-02-28T08:17:02;4.20;99.90
52125;DHT22;38119;52.710;6.398;2023-02-28T08:19:28;4.20;99.90
52125;DHT22;38119;52.710;6.398;2023-02-28T08:21:54;5.00;99.90
52125;DHT22;38119;52.710;6.398;2023-02-28T08:24:20;4.00;99.90
52125;DHT22;38119;52.710;6.398;2023-02-28T08:26:46;3.90;99.90
52125;DHT22;38119;52.710;6.398;2023-02-28T08:29:11;3.90;99.90
52125;DHT22;38119;52.710;6.398;2023-02-28T08:31:37;3.90;99.90
52125;DHT22;38119;52.710;6.398;2023-02-28T08:34:07;4.00;99.90
52125;DHT22;38119;52.710;6.398;2023-02-28T08:36:33;4.00;99.90
52125;DHT22;38119;52.710;6.398;2023-02-28T08:38:59;4.10;99.90
52125;DHT22;38119;52.710;6.398;2023-02-28T08:41:25;4.20;99.90
52125;DHT22;38119;52.710;6.398;2023-02-28T08:43:51;4.30;99.90
52125;DHT22;38119;52.710;6.398;2023-02-28T08:46:17;4.40;99.90
52125;DHT22;38119;52.710;6.398;2023-02-28T08:48:43;4.40;99.90
52125;DHT22;38119;52.710;6.398;2023-02-28T08:51:16;4.50;99.90
52125;DHT22;38119;52.710;6.398;2023-02-28T08:53:46;4.50;99.90
52125;DHT22;38119;52.710;6.398;2023-02-28T08:56:15;4.50;99.90
52125;DHT22;38119;52.710;6.398;2023-02-28T08:58:43;4.60;99.90
52125;DHT22;38119;52.710;6.398;2023-02-28T09:01:19;4.60;99.90
52125;DHT22;38119;52.710;6.398;2023-02-28T09:03:46;4.60;99.90
52125;DHT22;38119;52.710;6.398;2023-02-28T09:06:13;4.70;99.90
52125;DHT22;38119;52.710;6.398;2023-02-28T09:08:40;4.70;99.90
52125;DHT22;38119;52.710;6.398;2023-02-28T09:11:06;4.80;99.90
52125;DHT22;38119;52.710;6.398;2023-02-28T09:13:32;4.80;99.90
52125;DHT22;38119;52.710;6.398;2023-02-28T09:16:05;4.90;99.90
52125;DHT22;38119;52.710;6.398;2023-02-28T09:18:31;4.90;99.90
52125;DHT22;38119;52.710;6.398;2023-02-28T09:20:58;4.90;99.90
52125;DHT22;38119;52.710;6.398;2023-02-28T09:23:24;4.90;99.90
52125;DHT22;38119;52.710;6.398;2023-02-28T09:25:52;4.90;99.90
52125;DHT22;38119;52.710;6.398;2023-02-28T09:28:18;5.00;99.90
52125;DHT22;38119;52.710;6.398;2023-02-28T09:30:45;4.90;99.90
52125;DHT22;38119;52.710;6.398;2023-02-28T09:33:12;4.90;99.90
52125;DHT22;38119;52.710;6.398;2023-02-28T09:35:38;4.90;99.90
52125;DHT22;38119;52.710;6.398;2023-02-28T09:38:04;5.00;99.90
52125;DHT22;38119;52.710;6.398;2023-02-28T09:43:40;5.00;99.90
52125;DHT22;38119;52.710;6.398;2023-02-28T09:46:37;5.10;99.90
52125;DHT22;38119;52.710;6.398;2023-02-28T09:49:10;5.00;99.90
52125;DHT22;38119;52.710;6.398;2023-02-28T09:54:20;5.00;99.90
52125;DHT22;38119;52.710;6.398;2023-02-28T10:02:19;5.00;99.90
52125;DHT22;38119;52.710;6.398;2023-02-28T10:04:59;5.00;99.90
52125;DHT22;38119;52.710;6.398;2023-02-28T10:10:02;4.90;99.90
52125;DHT22;38119;52.710;6.398;2023-02-28T10:12:29;4.90;99.90
52125;DHT22;38119;52.710;6.398;2023-02-28T10:14:58;4.90;99.90
52125;DHT22;38119;52.710;6.398;2023-02-28T10:17:26;4.80;99.90
52125;DHT22;38119;52.710;6.398;2023-02-28T10:22:37;4.80;99.90
52125;DHT22;38119;52.710;6.398;2023-02-28T10:25:18;4.80;99.90
52125;DHT22;38119;52.710;6.398;2023-02-28T10:27:44;4.80;99.90
52125;DHT22;38119;52.710;6.398;2023-02-28T10:30:11;4.80;99.90
52125;DHT22;38119;52.710;6.398;2023-02-28T10:32:39;4.80;99.90
52125;DHT22;38119;52.710;6.398;2023-02-28T10:35:44;4.70;99.90
52125;DHT22;38119;52.710;6.398;2023-02-28T10:38:14;4.80;99.90
52125;DHT22;38119;52.710;6.398;2023-02-28T10:40:40;4.90;99.90
52125;DHT22;38119;52.710;6.398;2023-02-28T10:43:19;5.00;99.90
52125;DHT22;38119;52.710;6.398;2023-02-28T10:45:58;5.10;99.90
52125;DHT22;38119;52.710;6.398;2023-02-28T10:48:32;5.30;99.90
52125;DHT22;38119;52.710;6.398;2023-02-28T10:50:59;5.40;99.90
52125;DHT22;38119;52.710;6.398;2023-02-28T11:04:00;6.30;99.90
52125;DHT22;38119;52.710;6.398;2023-02-28T11:06:29;6.50;99.90
52125;DHT22;38119;52.710;6.398;2023-02-28T11:08:59;6.80;99.90
52125;DHT22;38119;52.710;6.398;2023-02-28T11:11:27;6.90;99.90
52125;DHT22;38119;52.710;6.398;2023-02-28T11:13:56;7.10;99.90
52125;DHT22;38119;52.710;6.398;2023-02-28T11:16:31;7.30;99.90
52125;DHT22;38119;52.710;6.398;2023-02-28T11:18:57;7.40;99.90
52125;DHT22;38119;52.710;6.398;2023-02-28T11:21:31;7.60;99.90
52125;DHT22;38119;52.710;6.398;2023-02-28T11:26:49;8.00;99.90
52125;DHT22;38119;52.710;6.398;2023-02-28T11:29:22;8.00;99.90
52125;DHT22;38119;52.710;6.398;2023-02-28T11:34:40;8.10;99.90
52125;DHT22;38119;52.710;6.398;2023-02-28T11:37:18;8.30;99.90
52125;DHT22;38119;52.710;6.398;2023-02-28T11:39:45;8.30;99.90
52125;DHT22;38119;52.710;6.398;2023-02-28T11:51:28;8.80;99.90
52125;DHT22;38119;52.710;6.398;2023-02-28T11:56:47;8.80;99.90
52125;DHT22;38119;52.710;6.398;2023-02-28T11:59:35;8.90;99.90
52125;DHT22;38119;52.710;6.398;2023-02-28T12:02:22;8.80;99.90
52125;DHT22;38119;52.710;6.398;2023-02-28T12:07:50;8.90;99.80
52125;DHT22;38119;52.710;6.398;2023-02-28T12:18:34;9.20;99.90
52125;DHT22;38119;52.710;6.398;2023-02-28T12:26:42;9.20;99.90
52125;DHT22;38119;52.710;6.398;2023-02-28T12:29:29;9.20;99.90
52125;DHT22;38119;52.710;6.398;2023-02-28T12:32:11;9.20;99.90
52125;DHT22;38119;52.710;6.398;2023-02-28T12:34:42;9.30;99.90
52125;DHT22;38119;52.710;6.398;2023-02-28T12:37:22;9.30;99.90
52125;DHT22;38119;52.710;6.398;2023-02-28T12:39:56;9.40;99.90
52125;DHT22;38119;52.710;6.398;2023-02-28T12:42:29;9.50;99.90
52125;DHT22;38119;52.710;6.398;2023-02-28T12:44:59;9.50;99.90
52125;DHT22;38119;52.710;6.398;2023-02-28T12:47:26;9.50;99.90
52125;DHT22;38119;52.710;6.398;2023-02-28T12:50:18;9.40;99.90
52125;DHT22;38119;52.710;6.398;2023-02-28T12:55:38;9.40;99.90
52125;DHT22;38119;52.710;6.398;2023-02-28T12:58:45;9.40;99.90
52125;DHT22;38119;52.710;6.398;2023-02-28T13:09:54;9.60;99.30
52125;DHT22;38119;52.710;6.398;2023-02-28T13:12:21;9.60;99.90
52125;DHT22;38119;52.710;6.398;2023-02-28T13:14:48;9.60;99.90
52125;DHT22;38119;52.710;6.398;2023-02-28T13:17:21;9.60;99.90
52125;DHT22;38119;52.710;6.398;2023-02-28T13:22:43;9.60;98.90
52125;DHT22;38119;52.710;6.398;2023-02-28T13:27:48;9.60;99.10
52125;DHT22;38119;52.710;6.398;2023-02-28T13:38:49;9.60;98.70
52125;DHT22;38119;52.710;6.398;2023-02-28T13:49:28;9.60;99.00
52125;DHT22;38119;52.710;6.398;2023-02-28T14:06:26;9.50;98.90
52125;DHT22;38119;52.710;6.398;2023-02-28T14:08:57;9.50;99.30
52125;DHT22;38119;52.710;6.398;2023-02-28T14:11:36;9.50;99.50
52125;DHT22;38119;52.710;6.398;2023-02-28T14:14:03;9.60;99.70
52125;DHT22;38119;52.710;6.398;2023-02-28T14:16:42;9.50;99.60
52125;DHT22;38119;52.710;6.398;2023-02-28T14:19:24;9.50;99.30
52125;DHT22;38119;52.710;6.398;2023-02-28T14:31:09;9.40;99.30
52125;DHT22;38119;52.710;6.398;2023-02-28T14:36:27;9.30;99.30
52125;DHT22;38119;52.710;6.398;2023-02-28T14:38:57;9.30;99.40
52125;DHT22;38119;52.710;6.398;2023-02-28T14:41:35;9.20;99.00
52125;DHT22;38119;52.710;6.398;2023-02-28T14:44:13;9.20;99.40
52125;DHT22;38119;52.710;6.398;2023-02-28T14:46:41;9.20;99.60
52125;DHT22;38119;52.710;6.398;2023-02-28T14:49:16;9.10;99.30
52125;DHT22;38119;52.710;6.398;2023-02-28T14:51:42;9.10;99.20
52125;DHT22;38119;52.710;6.398;2023-02-28T14:54:14;9.10;99.10
52125;DHT22;38119;52.710;6.398;2023-02-28T14:56:41;9.00;98.50
52125;DHT22;38119;52.710;6.398;2023-02-28T14:59:24;9.00;99.10
52125;DHT22;38119;52.710;6.398;2023-02-28T15:01:50;8.90;99.10
52125;DHT22;38119;52.710;6.398;2023-02-28T15:04:25;8.90;99.00
52125;DHT22;38119;52.710;6.398;2023-02-28T15:07:09;8.80;98.90
52125;DHT22;38119;52.710;6.398;2023-02-28T15:09:35;8.70;98.40
52125;DHT22;38119;52.710;6.398;2023-02-28T15:12:01;8.70;98.60
52125;DHT22;38119;52.710;6.398;2023-02-28T15:14:27;8.60;99.00
52125;DHT22;38119;52.710;6.398;2023-02-28T15:17:03;8.60;98.90
52125;DHT22;38119;52.710;6.398;2023-02-28T15:19:36;8.60;98.70
52125;DHT22;38119;52.710;6.398;2023-02-28T15:22:07;8.60;98.90
52125;DHT22;38119;52.710;6.398;2023-02-28T15:24:41;8.50;99.20
52125;DHT22;38119;52.710;6.398;2023-02-28T15:27:22;8.50;99.20
52125;DHT22;38119;52.710;6.398;2023-02-28T15:29:54;8.50;99.60
52125;DHT22;38119;52.710;6.398;2023-02-28T15:32:32;8.50;99.90
52125;DHT22;38119;52.710;6.398;2023-02-28T15:35:16;8.50;99.80
52125;DHT22;38119;52.710;6.398;2023-02-28T15:38:34;8.50;99.90
52125;DHT22;38119;52.710;6.398;2023-02-28T15:40:43;8.40;99.70
52125;DHT22;38119;52.710;6.398;2023-02-28T15:43:18;8.30;99.90
52125;DHT22;38119;52.710;6.398;2023-02-28T15:48:37;8.30;99.90
52125;DHT22;38119;52.710;6.398;2023-02-28T15:51:09;8.30;99.90
52125;DHT22;38119;52.710;6.398;2023-02-28T15:53:47;8.30;99.90
52125;DHT22;38119;52.710;6.398;2023-02-28T15:56:47;8.20;99.90
52125;DHT22;38119;52.710;6.398;2023-02-28T15:59:33;8.10;99.70
52125;DHT22;38119;52.710;6.398;2023-02-28T16:02:19;8.10;99.90
52125;DHT22;38119;52.710;6.398;2023-02-28T16:07:44;8.10;99.90
52125;DHT22;38119;52.710;6.398;2023-02-28T16:10:12;8.10;99.90
52125;DHT22;38119;52.710;6.398;2023-02-28T16:12:40;8.00;99.90
52125;DHT22;38119;52.710;6.398;2023-02-28T16:15:28;8.00;99.90
52125;DHT22;38119;52.710;6.398;2023-02-28T16:17:55;7.90;99.90
52125;DHT22;38119;52.710;6.398;2023-02-28T16:20:27;7.80;99.90
52125;DHT22;38119;52.710;6.398;2023-02-28T16:22:53;7.80;99.90
52125;DHT22;38119;52.710;6.398;2023-02-28T16:25:23;7.70;99.90
52125;DHT22;38119;52.710;6.398;2023-02-28T16:27:53;7.60;99.90
52125;DHT22;38119;52.710;6.398;2023-02-28T16:30:22;7.50;99.90
52125;DHT22;38119;52.710;6.398;2023-02-28T16:32:49;7.50;99.90
52125;DHT22;38119;52.710;6.398;2023-02-28T16:35:15;7.40;99.90
52125;DHT22;38119;52.710;6.398;2023-02-28T16:37:41;7.30;99.90
52125;DHT22;38119;52.710;6.398;2023-02-28T16:40:16;7.30;99.90
52125;DHT22;38119;52.710;6.398;2023-02-28T16:42:43;7.20;99.90
52125;DHT22;38119;52.710;6.398;2023-02-28T16:45:22;7.20;99.90
52125;DHT22;38119;52.710;6.398;2023-02-28T16:47:49;7.10;99.90
52125;DHT22;38119;52.710;6.398;2023-02-28T16:52:45;6.90;99.90
52125;DHT22;38119;52.710;6.398;2023-02-28T16:55:12;6.90;99.90
52125;DHT22;38119;52.710;6.398;2023-02-28T16:57:38;6.80;99.90
52125;DHT22;38119;52.710;6.398;2023-02-28T17:00:05;6.70;99.90
52125;DHT22;38119;52.710;6.398;2023-02-28T17:02:33;6.70;99.90
52125;DHT22;38119;52.710;6.398;2023-02-28T17:04:59;6.60;99.90
52125;DHT22;38119;52.710;6.398;2023-02-28T17:07:25;6.60;99.90
52125;DHT22;38119;52.710;6.398;2023-02-28T17:09:50;6.50;99.90
52125;DHT22;38119;52.710;6.398;2023-02-28T17:12:16;6.40;99.90
52125;DHT22;38119;52.710;6.398;2023-02-28T17:14:42;6.30;99.90
52125;DHT22;38119;52.710;6.398;2023-02-28T17:17:14;6.20;99.90
52125;DHT22;38119;52.710;6.398;2023-02-28T17:19:41;6.20;99.90
52125;DHT22;38119;52.710;6.398;2023-02-28T17:22:08;6.10;99.90
52125;DHT22;38119;52.710;6.398;2023-02-28T17:24:34;6.10;99.90
52125;DHT22;38119;52.710;6.398;2023-02-28T17:26:59;6.00;99.90
52125;DHT22;38119;52.710;6.398;2023-02-28T17:29:25;5.90;99.90
52125;DHT22;38119;52.710;6.398;2023-02-28T17:31:51;5.90;99.90
52125;DHT22;38119;52.710;6.398;2023-02-28T17:34:16;5.80;99.90
52125;DHT22;38119;52.710;6.398;2023-02-28T17:36:48;5.70;99.90
52125;DHT22;38119;52.710;6.398;2023-02-28T17:39:14;5.70;99.90
52125;DHT22;38119;52.710;6.398;2023-02-28T17:41:45;5.50;99.90
52125;DHT22;38119;52.710;6.398;2023-02-28T17:44:10;5.50;99.90
52125;DHT22;38119;52.710;6.398;2023-02-28T17:46:36;5.40;99.90
52125;DHT22;38119;52.710;6.398;2023-02-28T17:49:03;5.40;99.90
52125;DHT22;38119;52.710;6.398;2023-02-28T17:51:28;5.40;99.90
52125;DHT22;38119;52.710;6.398;2023-02-28T17:53:54;5.30;99.90
52125;DHT22;38119;52.710;6.398;2023-02-28T17:56:25;5.20;99.90
52125;DHT22;38119;52.710;6.398;2023-02-28T17:58:52;5.10;99.90
52125;DHT22;38119;52.710;6.398;2023-02-28T18:01:18;5.00;99.90
52125;DHT22;38119;52.710;6.398;2023-02-28T18:03:46;5.00;99.90
52125;DHT22;38119;52.710;6.398;2023-02-28T18:06:20;4.90;99.90
52125;DHT22;38119;52.710;6.398;2023-02-28T18:08:46;4.80;99.90
52125;DHT22;38119;52.710;6.398;2023-02-28T18:11:12;4.70;99.90
52125;DHT22;38119;52.710;6.398;2023-02-28T18:13:53;4.70;99.90
52125;DHT22;38119;52.710;6.398;2023-02-28T18:16:21;4.60;99.90
52125;DHT22;38119;52.710;6.398;2023-02-28T18:18:47;4.50;99.90
52125;DHT22;38119;52.710;6.398;2023-02-28T18:21:16;4.40;99.90
52125;DHT22;38119;52.710;6.398;2023-02-28T18:23:43;4.40;99.90
52125;DHT22;38119;52.710;6.398;2023-02-28T18:26:17;4.30;99.90
52125;DHT22;38119;52.710;6.398;2023-02-28T18:28:43;4.20;99.90
52125;DHT22;38119;52.710;6.398;2023-02-28T18:31:11;4.20;99.90
52125;DHT22;38119;52.710;6.398;2023-02-28T18:33:38;4.10;99.90
52125;DHT22;38119;52.710;6.398;2023-02-28T18:36:04;4.10;99.90
52125;DHT22;38119;52.710;6.398;2023-02-28T18:38:30;4.00;99.90
52125;DHT22;38119;52.710;6.398;2023-02-28T18:40:59;4.00;99.90